• Join FlightAware (Why Join?)
  • Login
  • US Flag 
10:32PM EDT


 

Airport Tracker/Info


-or-


 

Live Flight TrackerFlight Track Log ✈ QXE106 ✈ 02-May-2012 ✈ KSEA - KPSC

Flight Track Log - Related Links

Times and Time Zones

All times are in EDT time to prevent confusion due to time zone crossing. See the QXE106 flight status page for this flight to view local times or setup timezone preferences in your user account.

Time Position Orientation Groundspeed Altitude Reporting Facility
EDT Latitude Longitude Course Direction KTS MPH feet Rate Location/Type
04:44PM 47.4364 -122.3064 166° South 162 186 1,200  Level Seattle Center
04:44PM 47.4269 -122.3028 123° Southeast 138 159 1,800 1,680 Climbing Seattle Center
04:45PM 47.3950 -122.2303 104° East 205 236 3,800 1,980 Climbing Seattle Center
04:46PM 47.3808 -122.1469 118° Southeast 225 259 5,900 1,860 Climbing Seattle Center
04:47PM 47.3517 -122.0658 99° East 242 278 7,700 1,620 Climbing Seattle Center
04:48PM 47.3411 -121.9636 103° East 263 303 9,300 1,500 Climbing Seattle Center
04:49PM 47.3236 -121.8556 105° East 273 314 10,800 1,440 Climbing Seattle Center
04:50PM 47.3031 -121.7397 105° East 292 336 12,300 1,380 Climbing Seattle Center
04:51PM 47.2825 -121.6244 105° East 294 338 13,700 1,380 Climbing Seattle Center
04:52PM 47.2547 -121.4764 107° East 313 360 15,200 1,260 Climbing Seattle Center
04:53PM 47.2281 -121.3514 109° East 323 372 16,400 780 Climbing Seattle Center
04:55PM 47.1975 -121.2244 107° East 331 381 16,800 240 Climbing Seattle Center
04:56PM 47.1703 -121.0972 108° East 331 381 17,000 60 Climbing Seattle Center
04:57PM 47.1433 -120.9731 109° East 325 374 17,000  Level Seattle Center
04:58PM 47.1097 -120.8283 109° East 325 374 17,000  Level Seattle Center
04:59PM 47.0803 -120.7042 109° East 324 373 17,000  Level Seattle Center
05:00PM 47.0511 -120.5769 109° East 329 379 17,000  Level Seattle Center
05:01PM 47.0244 -120.4608 107° East 329 379 17,000 -60 Level Seattle Center
05:02PM 46.9975 -120.3333 107° East 331 381 16,900 -60 Descending Seattle Center
05:03PM 46.9708 -120.2064 107° East 329 379 16,900  Level Seattle Center
05:04PM 46.9383 -120.0544 108° East 329 379 16,900 -180 Level Seattle Center
05:05PM 46.9094 -119.9228 126° Southeast 331 381 16,600 -600 Descending Seattle Center
05:06PM 46.8564 -119.8153 142° Southeast 333 383 15,800 -1,200 Descending Seattle Center
05:07PM 46.7806 -119.7289 141° Southeast 347 399 14,200 -1,500 Descending Seattle Center
05:08PM 46.7097 -119.6458 138° Southeast 343 395 12,800 -1,620 Descending Seattle Center
05:09PM 46.6458 -119.5625 135° Southeast 313 360 11,000 -1,620 Descending Seattle Center
05:10PM 46.5906 -119.4811 135° Southeast 290 334 9,500 -1,440 Descending Seattle Center
05:11PM 46.5400 -119.4083 135° Southeast 267 307 8,100 -1,560 Descending Seattle Center
05:12PM 46.4814 -119.3247 136° Southeast 253 291 6,400 -1,500 Descending Seattle Center
05:13PM 46.4344 -119.2586 136° Southeast 243 280 5,100 -1,320 Descending Seattle Center
05:14PM 46.3911 -119.1972 129° Southeast 227 261 3,800 -1,320 Descending Seattle Center
05:15PM 46.3553 -119.1336 131° Southeast 211 243 2,500 -1,140 Descending Seattle Center
05:16PM 46.3219 -119.0778 131° Southeast 201 231 1,600 -900 Descending Seattle Center